createdAt,value
2019-04-27T00:02:36.670Z,5.50
2019-04-27T00:05:11.748Z,5.40
2019-04-27T00:07:56.279Z,5.40
2019-04-27T00:10:53.292Z,5.40
2019-04-27T00:13:22.987Z,5.30
2019-04-27T00:16:05.639Z,5.20
2019-04-27T00:18:54.854Z,5.10
2019-04-27T00:21:32.810Z,5.00
2019-04-27T00:24:03.353Z,5.00
2019-04-27T00:26:33.412Z,5.00
2019-04-27T00:29:03.840Z,4.90
2019-04-27T00:31:33.631Z,4.90
2019-04-27T00:34:03.589Z,4.90
2019-04-27T00:36:43.511Z,4.90
2019-04-27T00:39:37.881Z,4.90
2019-04-27T00:42:07.020Z,4.90
2019-04-27T00:44:36.131Z,4.90
2019-04-27T00:47:06.784Z,4.90
2019-04-27T00:49:35.805Z,4.90
2019-04-27T00:52:04.945Z,4.90
2019-04-27T00:54:34.049Z,4.90
2019-04-27T00:57:20.682Z,4.90
2019-04-27T01:00:13.357Z,4.90
2019-04-27T01:02:48.962Z,4.90
2019-04-27T01:05:23.033Z,4.90
2019-04-27T01:07:53.615Z,4.90
2019-04-27T01:10:23.395Z,4.90
2019-04-27T01:12:53.134Z,4.80
2019-04-27T01:15:23.810Z,4.90
2019-04-27T01:17:53.243Z,4.80
2019-04-27T01:20:22.063Z,4.80
2019-04-27T01:22:50.951Z,4.60
2019-04-27T01:25:21.006Z,4.50
2019-04-27T01:28:14.895Z,4.40
2019-04-27T01:30:49.174Z,4.40
2019-04-27T01:33:19.814Z,4.30
2019-04-27T01:35:49.139Z,4.20
2019-04-27T01:38:19.178Z,4.20
2019-04-27T01:40:49.699Z,4.20
2019-04-27T01:43:18.768Z,4.20
2019-04-27T01:45:48.809Z,4.20
2019-04-27T01:48:23.757Z,4.20
2019-04-27T01:50:49.211Z,4.20
2019-04-27T01:53:19.071Z,4.30
2019-04-27T01:55:49.201Z,4.30
2019-04-27T01:58:20.156Z,4.30
2019-04-27T02:01:03.149Z,4.40
2019-04-27T02:03:50.304Z,4.30
2019-04-27T02:06:20.795Z,4.40
2019-04-27T02:08:49.825Z,4.40
2019-04-27T02:11:18.761Z,4.30
2019-04-27T02:13:48.805Z,4.40
2019-04-27T02:16:18.754Z,4.40
2019-04-27T02:18:48.888Z,4.30
2019-04-27T02:21:19.305Z,4.30
2019-04-27T02:23:49.638Z,4.30
2019-04-27T02:26:19.173Z,4.30
2019-04-27T02:29:11.693Z,4.20
2019-04-27T02:32:02.964Z,4.20
2019-04-27T02:34:33.773Z,4.10
2019-04-27T02:37:02.983Z,4.10
2019-04-27T02:39:31.985Z,4.10
2019-04-27T02:42:00.918Z,4.00
2019-04-27T02:44:35.689Z,4.00
2019-04-27T02:47:04.860Z,3.90
2019-04-27T02:49:33.634Z,3.90
2019-04-27T02:52:09.423Z,3.80
2019-04-27T02:54:39.966Z,3.80
2019-04-27T02:57:10.114Z,3.70
2019-04-27T02:59:39.912Z,3.70
2019-04-27T03:02:19.816Z,3.70
2019-04-27T03:04:49.885Z,3.70
2019-04-27T03:07:20.051Z,3.70
2019-04-27T03:09:51.011Z,3.70
2019-04-27T03:12:21.764Z,3.60
2019-04-27T03:15:00.060Z,3.50
2019-04-27T03:17:39.606Z,3.50
2019-04-27T03:20:30.083Z,3.50
2019-04-27T03:23:02.063Z,3.50
2019-04-27T03:25:39.872Z,3.50
2019-04-27T03:28:10.975Z,3.40
2019-04-27T03:30:42.244Z,3.40
2019-04-27T03:33:12.088Z,3.30
2019-04-27T03:35:43.432Z,3.30
2019-04-27T03:38:12.664Z,3.10
2019-04-27T03:40:41.796Z,3.10
2019-04-27T03:43:22.923Z,3.10
2019-04-27T03:45:52.318Z,3.00
2019-04-27T03:48:21.679Z,2.90
2019-04-27T03:51:12.732Z,2.90
2019-04-27T03:54:05.185Z,2.90
2019-04-27T03:56:46.198Z,2.90
2019-04-27T03:59:24.512Z,2.80
2019-04-27T04:01:53.374Z,2.80
2019-04-27T04:04:22.246Z,2.70
2019-04-27T04:06:51.275Z,2.70
2019-04-27T04:09:26.163Z,2.70
2019-04-27T04:12:02.245Z,2.70
2019-04-27T04:14:31.691Z,2.80
2019-04-27T04:17:03.374Z,2.90
2019-04-27T04:19:47.817Z,3.00
2019-04-27T04:22:03.053Z,3.00
2019-04-27T04:24:32.047Z,3.10
2019-04-27T04:27:07.150Z,3.10
2019-04-27T04:29:36.274Z,3.20
2019-04-27T04:32:05.206Z,3.30
2019-04-27T04:34:35.206Z,3.40
2019-04-27T04:37:04.270Z,3.40
2019-04-27T04:39:33.226Z,3.50
2019-04-27T04:42:14.971Z,3.50
2019-04-27T04:45:12.370Z,3.40
2019-04-27T04:47:51.514Z,3.40
2019-04-27T04:50:22.741Z,3.30
2019-04-27T04:52:52.244Z,3.30
2019-04-27T04:55:21.071Z,3.40
2019-04-27T04:57:50.197Z,3.40
2019-04-27T05:00:19.916Z,3.50
2019-04-27T05:02:49.291Z,3.60
2019-04-27T05:05:19.321Z,3.70
2019-04-27T05:07:48.659Z,3.80
2019-04-27T05:10:18.834Z,3.90
2019-04-27T05:12:48.606Z,4.00
2019-04-27T05:15:20.638Z,4.20
2019-04-27T05:17:51.076Z,4.40
2019-04-27T05:20:26.486Z,4.60
2019-04-27T05:22:55.281Z,4.70
2019-04-27T05:25:24.125Z,5.00
2019-04-27T05:27:53.374Z,5.50
2019-04-27T05:30:22.152Z,6.60
2019-04-27T05:32:51.025Z,7.60
2019-04-27T05:35:19.819Z,9.10
2019-04-27T05:37:49.230Z,10.50
2019-04-27T05:40:18.971Z,11.70
2019-04-27T05:42:48.899Z,12.70
2019-04-27T05:46:35.605Z,13.80
2019-04-27T05:49:06.342Z,14.60
2019-04-27T05:51:37.287Z,15.30
2019-04-27T05:54:06.606Z,16.00
2019-04-27T05:56:35.661Z,17.30
2019-04-27T05:59:04.601Z,18.40
2019-04-27T06:01:33.584Z,18.50
2019-04-27T06:04:02.447Z,19.00
2019-04-27T06:06:32.317Z,19.50
2019-04-27T06:09:01.225Z,20.10
2019-04-27T06:11:30.335Z,19.80
2019-04-27T06:13:59.477Z,19.60
2019-04-27T06:16:29.493Z,19.20
2019-04-27T06:18:59.423Z,17.80
2019-04-27T06:21:29.482Z,17.40
2019-04-27T06:23:58.932Z,16.60
2019-04-27T06:26:30.072Z,16.00
2019-04-27T06:28:59.593Z,15.40
2019-04-27T06:31:29.709Z,15.20
2019-04-27T06:33:59.711Z,15.10
2019-04-27T06:36:28.858Z,15.20
2019-04-27T06:38:58.900Z,15.10
2019-04-27T06:41:29.478Z,15.00
2019-04-27T06:43:59.332Z,14.90
2019-04-27T06:46:28.866Z,14.60
2019-04-27T06:48:59.314Z,14.30
2019-04-27T06:51:28.755Z,14.00
2019-04-27T06:53:59.323Z,13.70
2019-04-27T06:56:28.743Z,13.40
2019-04-27T06:58:59.563Z,13.00
2019-04-27T07:01:29.850Z,12.70
2019-04-27T07:03:59.802Z,12.40
2019-04-27T07:06:28.721Z,12.30
2019-04-27T07:08:59.593Z,12.00
2019-04-27T07:11:29.602Z,11.80
2019-04-27T07:13:59.411Z,11.60
2019-04-27T07:16:29.379Z,11.50
2019-04-27T07:18:59.318Z,11.40
2019-04-27T07:21:28.681Z,11.20
2019-04-27T07:23:59.415Z,11.10
2019-04-27T07:26:30.250Z,11.00
2019-04-27T07:28:59.737Z,11.00
2019-04-27T07:31:29.532Z,10.90
2019-04-27T07:33:59.699Z,10.90
2019-04-27T07:36:29.061Z,10.90
2019-04-27T07:38:59.639Z,10.80
2019-04-27T07:41:29.159Z,10.80
2019-04-27T07:44:06.615Z,10.80
2019-04-27T07:46:38.538Z,10.80
2019-04-27T07:49:09.232Z,10.80
2019-04-27T07:51:39.293Z,10.60
2019-04-27T07:54:08.996Z,10.70
2019-04-27T07:56:39.004Z,10.70
2019-04-27T07:59:09.115Z,10.50
2019-04-27T08:01:39.343Z,10.20
2019-04-27T08:04:09.099Z,10.30
2019-04-27T08:06:38.756Z,10.50
2019-04-27T08:09:09.356Z,10.60
2019-04-27T08:11:39.333Z,10.90
2019-04-27T08:14:08.829Z,11.30
2019-04-27T08:16:38.801Z,11.50
2019-04-27T08:19:09.756Z,11.50
2019-04-27T08:21:44.259Z,11.50
2019-04-27T08:24:09.580Z,11.40
2019-04-27T08:26:46.152Z,11.60
2019-04-27T08:29:40.147Z,11.50
2019-04-27T08:32:12.863Z,11.50
2019-04-27T08:34:41.730Z,11.60
2019-04-27T08:37:10.670Z,11.10
2019-04-27T08:39:39.727Z,11.00
2019-04-27T08:42:09.572Z,11.00
2019-04-27T08:44:39.754Z,11.10
2019-04-27T08:47:09.583Z,11.10
2019-04-27T08:49:39.398Z,10.90
2019-04-27T08:52:09.366Z,10.80
2019-04-27T08:54:39.431Z,10.70
2019-04-27T08:57:09.689Z,10.60
2019-04-27T08:59:39.274Z,10.50
2019-04-27T09:02:08.760Z,10.50
2019-04-27T09:04:39.416Z,10.30
2019-04-27T09:07:26.484Z,10.30
2019-04-27T09:09:59.666Z,10.30
2019-04-27T09:12:53.345Z,10.30
2019-04-27T09:15:26.492Z,10.20
2019-04-27T09:17:56.118Z,10.20
2019-04-27T09:20:44.039Z,10.30
2019-04-27T09:23:13.071Z,10.40
2019-04-27T09:25:42.198Z,10.60
2019-04-27T09:28:11.054Z,10.50
2019-04-27T09:30:40.023Z,10.60
2019-04-27T09:33:08.870Z,10.50
2019-04-27T09:35:38.034Z,10.40
2019-04-27T09:38:07.150Z,10.30
2019-04-27T09:40:36.216Z,10.40
2019-04-27T09:43:05.070Z,10.70
2019-04-27T09:45:34.675Z,11.00
2019-04-27T09:48:03.690Z,11.40
2019-04-27T09:50:32.547Z,11.60
2019-04-27T09:53:01.639Z,11.50
2019-04-27T09:55:30.736Z,11.60
2019-04-27T09:57:59.509Z,11.60
2019-04-27T10:00:29.250Z,11.60
2019-04-27T10:02:58.056Z,11.80
2019-04-27T10:05:27.083Z,11.90
2019-04-27T10:07:56.914Z,12.10
2019-04-27T10:10:26.766Z,11.90
2019-04-27T10:12:56.871Z,11.90
2019-04-27T10:15:26.714Z,12.00
2019-04-27T10:17:57.566Z,12.00
2019-04-27T10:20:26.224Z,12.00
2019-04-27T10:22:56.436Z,11.90
2019-04-27T10:25:26.945Z,11.80
2019-04-27T10:27:59.117Z,11.80
2019-04-27T10:30:29.377Z,11.60
2019-04-27T10:32:58.327Z,11.50
2019-04-27T10:35:27.394Z,11.20
2019-04-27T10:37:56.355Z,11.40
2019-04-27T10:40:26.365Z,11.60
2019-04-27T10:42:56.068Z,11.90
2019-04-27T10:45:25.125Z,12.00
2019-04-27T10:47:53.978Z,12.10
2019-04-27T10:50:22.918Z,12.40
2019-04-27T10:52:53.686Z,12.40
2019-04-27T10:55:22.406Z,12.50
2019-04-27T10:57:51.268Z,12.40
2019-04-27T11:00:26.822Z,12.20
2019-04-27T11:02:56.555Z,12.20
2019-04-27T11:05:35.927Z,12.20
2019-04-27T11:08:06.601Z,12.20
2019-04-27T11:10:36.098Z,12.00
2019-04-27T11:13:06.270Z,11.90
2019-04-27T11:15:37.088Z,11.90
2019-04-27T11:18:06.475Z,12.00
2019-04-27T11:20:36.297Z,12.10
2019-04-27T11:23:09.203Z,12.60
2019-04-27T11:25:36.485Z,13.10
2019-04-27T11:28:05.860Z,12.90
2019-04-27T11:30:34.831Z,12.70
2019-04-27T11:33:03.770Z,12.70
2019-04-27T11:35:59.532Z,12.60
2019-04-27T11:38:28.373Z,12.90
2019-04-27T11:40:57.173Z,13.40
2019-04-27T11:43:26.149Z,13.40
2019-04-27T11:45:55.922Z,13.00
2019-04-27T11:48:26.297Z,13.00
2019-04-27T11:50:56.053Z,13.00
2019-04-27T11:53:26.224Z,12.70
2019-04-27T11:55:55.206Z,12.00
2019-04-27T11:58:23.995Z,11.40
2019-04-27T12:00:53.037Z,10.80
2019-04-27T12:03:22.083Z,10.30
2019-04-27T12:05:51.001Z,10.00
2019-04-27T12:08:20.056Z,9.90
2019-04-27T12:10:49.072Z,9.80
2019-04-27T12:13:17.993Z,9.80
2019-04-27T12:15:47.197Z,9.50
2019-04-27T12:18:16.634Z,9.50
2019-04-27T12:20:45.811Z,9.40
2019-04-27T12:23:16.383Z,9.30
2019-04-27T12:25:46.204Z,9.10
2019-04-27T12:28:27.240Z,9.10
2019-04-27T12:31:09.269Z,9.30
2019-04-27T12:33:38.356Z,9.30
2019-04-27T12:36:07.507Z,9.30
2019-04-27T12:38:36.689Z,9.00
2019-04-27T12:41:06.777Z,8.90
2019-04-27T12:43:37.466Z,8.90
2019-04-27T12:46:06.506Z,9.00
2019-04-27T12:48:37.169Z,9.00
2019-04-27T12:51:06.369Z,8.80
2019-04-27T12:53:50.580Z,8.80
2019-04-27T12:56:30.538Z,8.70
2019-04-27T12:59:15.650Z,8.60
2019-04-27T13:01:46.095Z,8.50
2019-04-27T13:04:15.370Z,8.40
2019-04-27T13:06:44.408Z,8.10
2019-04-27T13:09:13.458Z,7.90
2019-04-27T13:11:42.522Z,7.90
2019-04-27T13:14:14.284Z,7.80
2019-04-27T13:16:43.242Z,7.70
2019-04-27T13:19:12.229Z,7.80
2019-04-27T13:21:41.042Z,7.90
2019-04-27T13:24:10.095Z,8.50
2019-04-27T13:26:39.030Z,9.50
2019-04-27T13:29:07.893Z,10.20
2019-04-27T13:31:37.069Z,10.70
2019-04-27T13:34:05.979Z,10.80
2019-04-27T13:36:36.631Z,10.80
2019-04-27T13:39:06.961Z,10.80
2019-04-27T13:41:36.143Z,10.90
2019-04-27T13:44:06.566Z,11.20
2019-04-27T13:46:53.291Z,11.40
2019-04-27T13:49:33.213Z,11.50
2019-04-27T13:52:16.107Z,11.50
2019-04-27T13:54:48.206Z,11.40
2019-04-27T13:57:18.413Z,11.20
2019-04-27T13:59:47.622Z,11.20
2019-04-27T14:02:18.853Z,11.20
2019-04-27T14:04:48.221Z,11.00
2019-04-27T14:07:17.681Z,10.90
2019-04-27T14:09:46.709Z,10.80
2019-04-27T14:12:21.164Z,10.60
2019-04-27T14:14:50.976Z,10.40
2019-04-27T14:17:19.871Z,10.30
2019-04-27T14:19:48.982Z,10.60
2019-04-27T14:22:18.282Z,10.80
2019-04-27T14:24:48.711Z,10.70
2019-04-27T14:27:18.863Z,10.70
2019-04-27T14:29:48.935Z,10.50
2019-04-27T14:32:18.770Z,10.50
2019-04-27T14:34:48.520Z,10.50
2019-04-27T14:37:18.757Z,10.40
2019-04-27T14:39:48.083Z,10.40
2019-04-27T14:42:19.025Z,10.50
2019-04-27T14:44:48.943Z,10.40
2019-04-27T14:47:18.784Z,10.20
2019-04-27T14:49:49.085Z,10.20
2019-04-27T14:52:18.749Z,10.10
2019-04-27T14:54:50.543Z,10.00
2019-04-27T14:57:18.476Z,10.20
2019-04-27T14:59:49.418Z,10.60
2019-04-27T15:02:18.646Z,10.80
2019-04-27T15:04:49.437Z,11.10
2019-04-27T15:07:18.448Z,11.00
2019-04-27T15:09:49.576Z,10.80
2019-04-27T15:12:18.164Z,10.80
2019-04-27T15:14:47.098Z,10.50
2019-04-27T15:17:17.601Z,10.40
2019-04-27T15:19:53.769Z,10.70
2019-04-27T15:22:27.153Z,10.70
2019-04-27T15:25:10.857Z,10.70
2019-04-27T15:27:37.325Z,10.70
2019-04-27T15:30:08.534Z,10.90
2019-04-27T15:32:51.394Z,10.70
2019-04-27T15:35:35.430Z,10.70
2019-04-27T15:38:13.938Z,10.50
2019-04-27T15:41:03.856Z,10.40
2019-04-27T15:43:48.651Z,9.80
2019-04-27T15:46:18.591Z,9.40
2019-04-27T15:48:48.697Z,8.90
2019-04-27T15:51:20.978Z,8.60
2019-04-27T15:53:50.698Z,8.60
2019-04-27T15:56:21.590Z,8.70
2019-04-27T15:58:49.642Z,8.90
2019-04-27T16:01:18.574Z,9.30
2019-04-27T16:03:48.188Z,9.40
2019-04-27T16:06:19.056Z,9.40
2019-04-27T16:08:49.207Z,9.30
2019-04-27T16:11:19.842Z,9.30
2019-04-27T16:13:48.978Z,9.20
2019-04-27T16:16:18.438Z,9.10
2019-04-27T16:18:48.996Z,8.90
2019-04-27T16:21:20.086Z,8.80
2019-04-27T16:23:48.690Z,8.80
2019-04-27T16:26:18.301Z,8.60
2019-04-27T16:28:53.039Z,8.50
2019-04-27T16:31:20.342Z,8.50
2019-04-27T16:33:49.706Z,8.40
2019-04-27T16:36:19.815Z,8.30
2019-04-27T16:38:54.567Z,8.30
2019-04-27T16:41:23.541Z,8.40
2019-04-27T16:43:52.465Z,8.50
2019-04-27T16:46:21.580Z,8.60
2019-04-27T16:48:50.361Z,8.70
2019-04-27T16:51:19.156Z,8.60
2019-04-27T16:53:48.257Z,8.40
2019-04-27T16:56:20.502Z,8.50
2019-04-27T16:58:49.007Z,8.40
2019-04-27T17:01:22.627Z,8.40
2019-04-27T17:03:51.590Z,8.30
2019-04-27T17:06:21.437Z,8.30
2019-04-27T17:08:50.363Z,8.30
2019-04-27T17:11:19.760Z,8.30
2019-04-27T17:13:53.265Z,8.30
2019-04-27T17:16:36.195Z,8.20
2019-04-27T17:19:17.717Z,8.30
2019-04-27T17:21:48.377Z,8.20
2019-04-27T17:24:37.425Z,8.30
2019-04-27T17:27:03.438Z,8.30
2019-04-27T17:29:34.369Z,8.20
2019-04-27T17:32:03.693Z,8.30
2019-04-27T17:34:32.539Z,8.20
2019-04-27T17:37:01.339Z,8.20
2019-04-27T17:39:30.430Z,8.10
2019-04-27T17:42:00.315Z,8.00
2019-04-27T17:44:29.345Z,7.80
2019-04-27T17:46:58.386Z,7.70
2019-04-27T17:49:28.077Z,7.60
2019-04-27T17:51:58.574Z,7.60
2019-04-27T17:54:29.004Z,7.50
2019-04-27T17:56:57.870Z,7.50
2019-04-27T17:59:27.234Z,7.60
2019-04-27T18:02:00.833Z,7.70
2019-04-27T18:04:28.775Z,7.70
2019-04-27T18:07:00.200Z,7.70
2019-04-27T18:09:29.057Z,7.80
2019-04-27T18:11:58.405Z,7.80
2019-04-27T18:14:32.511Z,7.50
2019-04-27T18:16:58.458Z,7.40
2019-04-27T18:19:40.283Z,7.40
2019-04-27T18:22:09.994Z,7.40
2019-04-27T18:25:06.559Z,7.40
2019-04-27T18:27:43.062Z,7.40
2019-04-27T18:30:23.117Z,7.50
2019-04-27T18:32:52.096Z,7.60
2019-04-27T18:35:26.357Z,7.50
2019-04-27T18:37:53.648Z,7.50
2019-04-27T18:40:24.247Z,7.50
2019-04-27T18:42:53.171Z,7.30
2019-04-27T18:45:22.298Z,7.30
2019-04-27T18:47:59.288Z,7.30
2019-04-27T18:50:53.306Z,7.30
2019-04-27T18:53:25.473Z,7.20
2019-04-27T18:55:59.429Z,7.10
2019-04-27T18:58:25.007Z,7.10
2019-04-27T19:00:53.910Z,7.10
2019-04-27T19:03:22.796Z,7.00
2019-04-27T19:05:51.672Z,6.90
2019-04-27T19:08:20.530Z,6.80
2019-04-27T19:10:49.495Z,6.70
2019-04-27T19:13:19.388Z,6.70
2019-04-27T19:15:48.308Z,6.60
2019-04-27T19:18:18.757Z,6.60
2019-04-27T19:20:48.285Z,6.60
2019-04-27T19:23:17.140Z,6.60
2019-04-27T19:25:55.279Z,6.60
2019-04-27T19:28:51.180Z,6.70
2019-04-27T19:31:29.021Z,6.80
2019-04-27T19:33:57.908Z,6.80
2019-04-27T19:36:27.942Z,6.90
2019-04-27T19:38:58.381Z,6.90
2019-04-27T19:41:28.843Z,6.90
2019-04-27T19:43:59.761Z,6.90
2019-04-27T19:46:28.579Z,7.00
2019-04-27T19:49:03.102Z,7.00
2019-04-27T19:51:32.006Z,7.00
2019-04-27T19:54:00.866Z,7.00
2019-04-27T19:56:29.753Z,7.00
2019-04-27T19:59:01.217Z,7.00
2019-04-27T20:01:40.610Z,7.10
2019-04-27T20:04:16.407Z,7.10
2019-04-27T20:06:45.303Z,7.10
2019-04-27T20:09:36.419Z,7.10
2019-04-27T20:12:07.665Z,7.20
2019-04-27T20:14:54.026Z,7.30
2019-04-27T20:17:23.055Z,7.30
2019-04-27T20:19:51.938Z,7.20
2019-04-27T20:22:21.222Z,7.20
2019-04-27T20:24:51.473Z,7.20
2019-04-27T20:27:21.157Z,7.20
2019-04-27T20:29:50.301Z,7.10
2019-04-27T20:32:19.222Z,7.10
2019-04-27T20:34:48.098Z,7.10
2019-04-27T20:37:17.121Z,7.10
2019-04-27T20:39:46.368Z,7.10
2019-04-27T20:42:15.234Z,7.10
2019-04-27T20:44:44.051Z,7.00
2019-04-27T20:47:12.845Z,7.00
2019-04-27T20:49:41.726Z,6.90
2019-04-27T20:52:17.129Z,6.90
2019-04-27T20:54:45.933Z,6.90
2019-04-27T20:57:14.730Z,6.90
2019-04-27T20:59:43.538Z,6.90
2019-04-27T21:02:32.066Z,6.90
2019-04-27T21:05:16.322Z,6.90
2019-04-27T21:07:48.832Z,7.00
2019-04-27T21:10:17.848Z,6.90
2019-04-27T21:12:46.634Z,6.90
2019-04-27T21:15:15.585Z,6.90
2019-04-27T21:17:44.386Z,6.90
2019-04-27T21:20:13.380Z,7.00
2019-04-27T21:22:42.163Z,6.90
2019-04-27T21:25:11.837Z,6.90
2019-04-27T21:27:41.179Z,6.90
2019-04-27T21:30:11.368Z,6.90
2019-04-27T21:32:40.599Z,6.90
2019-04-27T21:35:10.950Z,6.90
2019-04-27T21:37:40.875Z,6.80
2019-04-27T21:40:22.145Z,6.80
2019-04-27T21:42:51.356Z,6.80
2019-04-27T21:45:21.746Z,6.80
2019-04-27T21:47:51.876Z,6.80
2019-04-27T21:50:23.223Z,6.90
2019-04-27T21:53:16.566Z,6.80
2019-04-27T21:55:46.997Z,6.80
2019-04-27T21:58:28.307Z,6.90
2019-04-27T22:01:12.889Z,6.90
2019-04-27T22:03:40.705Z,7.00
2019-04-27T22:06:09.516Z,7.00
2019-04-27T22:08:38.386Z,7.00
2019-04-27T22:11:07.326Z,7.00
2019-04-27T22:13:36.101Z,6.90
2019-04-27T22:16:05.040Z,6.80
2019-04-27T22:18:33.902Z,6.80
2019-04-27T22:21:02.767Z,6.70
2019-04-27T22:23:44.574Z,6.70
2019-04-27T22:26:13.774Z,6.70
2019-04-27T22:28:47.133Z,6.70
2019-04-27T22:31:13.243Z,6.60
2019-04-27T22:33:42.970Z,6.60
2019-04-27T22:36:11.972Z,6.70
2019-04-27T22:38:41.294Z,6.70
2019-04-27T22:41:18.698Z,6.70
2019-04-27T22:44:13.562Z,6.70
2019-04-27T22:46:43.549Z,6.70
2019-04-27T22:49:12.329Z,6.70
2019-04-27T22:51:43.012Z,6.70
2019-04-27T22:54:11.754Z,6.70
2019-04-27T22:56:42.301Z,6.80
2019-04-27T22:59:22.426Z,6.70
2019-04-27T23:02:01.658Z,6.70
2019-04-27T23:04:34.360Z,6.70
2019-04-27T23:07:03.239Z,6.60
2019-04-27T23:09:32.076Z,6.60
2019-04-27T23:12:01.822Z,6.60
2019-04-27T23:14:31.359Z,6.60
2019-04-27T23:17:09.103Z,6.60
2019-04-27T23:19:37.869Z,6.60
2019-04-27T23:22:06.665Z,6.60
2019-04-27T23:24:35.437Z,6.60
2019-04-27T23:27:04.326Z,6.60
2019-04-27T23:29:33.302Z,6.50
2019-04-27T23:32:07.663Z,6.50
2019-04-27T23:34:36.477Z,6.50
2019-04-27T23:37:05.397Z,6.50
2019-04-27T23:39:34.756Z,6.50
2019-04-27T23:42:06.806Z,6.50
2019-04-27T23:44:34.450Z,6.50
2019-04-27T23:47:03.347Z,6.40
2019-04-27T23:49:32.419Z,6.40
2019-04-27T23:52:07.881Z,6.40
2019-04-27T23:54:36.753Z,6.40
2019-04-27T23:57:05.526Z,6.40
2019-04-27T23:59:34.383Z,6.40
